Time;durP1;ratioP1;P1;durP2;ratioP2;P2;SDS_P1;SDS_P2;PMS_P1;PMS_P2;Temp;Humidity;BMP_temperature;BMP_pressure;BME280_temperature;BME280_humidity;BME280_pressure;Samples;Min_cycle;Max_cycle;Signal;HPM_P1;HPM_P2
2022/11/16 00:01:11;;;;;;;6.25;5.65;;;;;;;10.69;100.00;99824.78;5072278;28;20040;-35
2022/11/16 00:03:36;;;;;;;7.05;6.35;;;;;;;10.72;100.00;99829.66;5072594;28;20422;-35
2022/11/16 00:06:04;;;;;;;7.40;5.70;;;;;;;10.67;100.00;99820.69;5072056;28;20119;-35
2022/11/16 00:08:31;;;;;;;6.57;5.40;;;;;;;10.75;100.00;99825.63;5073624;28;20038;-35
2022/11/16 00:11:26;;;;;;;6.43;5.80;;;;;;;10.76;100.00;99821.84;5075962;28;20082;-35
2022/11/16 00:13:51;;;;;;;6.80;6.18;;;;;;;10.74;100.00;99821.31;5014137;28;20045;-35
2022/11/16 00:16:17;;;;;;;6.43;5.83;;;;;;;10.76;100.00;99822.66;5014038;28;20032;-35
2022/11/16 00:18:43;;;;;;;6.85;6.25;;;;;;;10.73;100.00;99828.56;5013956;28;20548;-35
2022/11/16 00:21:09;;;;;;;6.47;5.78;;;;;;;10.75;100.00;99825.63;5013661;28;20030;-35
2022/11/16 00:23:37;;;;;;;7.05;5.88;;;;;;;10.74;100.00;99838.34;5013602;28;20122;-35
2022/11/16 00:26:07;;;;;;;7.05;6.43;;;;;;;10.74;100.00;99824.81;4997161;28;20049;-35
2022/11/16 00:28:33;;;;;;;6.93;6.15;;;;;;;10.75;100.00;99829.16;5013629;28;20104;-35
2022/11/16 00:31:00;;;;;;;7.40;6.70;;;;;;;10.77;100.00;99832.41;5013652;28;20041;-35
2022/11/16 00:33:26;;;;;;;7.13;6.43;;;;;;;10.70;100.00;99806.66;5013917;28;20042;-35
2022/11/16 00:35:51;;;;;;;7.95;7.07;;;;;;;10.71;100.00;99811.81;5014002;28;20026;-35
2022/11/16 00:38:16;;;;;;;7.13;6.43;;;;;;;10.78;100.00;99825.09;5014121;28;20057;-35
2022/11/16 00:40:42;;;;;;;7.47;6.80;;;;;;;10.77;100.00;99826.19;5013389;28;20026;-35
2022/11/16 00:43:07;;;;;;;7.87;7.07;;;;;;;10.78;100.00;99819.69;5013654;28;20627;-35
2022/11/16 00:45:32;;;;;;;8.07;7.27;;;;;;;10.77;100.00;99815.38;5013448;28;20038;-35
2022/11/16 00:47:58;;;;;;;7.63;6.93;;;;;;;10.77;100.00;99815.38;5013753;28;20033;-35
2022/11/16 00:50:23;;;;;;;7.90;7.10;;;;;;;10.75;100.00;99812.94;5048312;28;20036;-35
2022/11/16 00:52:48;;;;;;;7.20;6.47;;;;;;;10.75;100.00;99814.81;5075187;28;20274;-35
2022/11/16 00:55:14;;;;;;;8.70;7.67;;;;;;;10.75;100.00;99823.75;5075110;28;20079;-35
2022/11/16 00:57:39;;;;;;;7.97;7.27;;;;;;;10.75;100.00;99817.53;5075576;28;20044;-35
2022/11/16 01:00:05;;;;;;;7.70;7.00;;;;;;;10.75;100.00;99806.72;5075278;28;20304;-35
2022/11/16 01:02:30;;;;;;;7.38;6.68;;;;;;;10.75;100.00;99810.22;5075292;28;20492;-35
2022/11/16 01:04:56;;;;;;;7.80;7.03;;;;;;;10.70;100.00;99801.25;5074970;28;20021;-35
2022/11/16 01:07:21;;;;;;;8.10;7.17;;;;;;;10.68;100.00;99789.88;5075226;28;20380;-35
2022/11/16 01:09:46;;;;;;;7.77;7.07;;;;;;;10.75;100.00;99795.88;5074850;28;20032;-35
2022/11/16 01:12:11;;;;;;;7.83;6.97;;;;;;;10.75;100.00;99801.28;5074839;28;20077;-35
2022/11/16 01:14:42;;;;;;;7.50;6.87;;;;;;;10.78;100.00;99806.16;5074890;28;20028;-33
2022/11/16 01:17:08;;;;;;;11.30;6.80;;;;;;;10.75;100.00;99802.09;5075023;28;20036;-34
2022/11/16 01:19:35;;;;;;;7.63;6.93;;;;;;;10.77;100.00;99799.94;5072955;28;20339;-35
2022/11/16 01:22:00;;;;;;;8.55;7.53;;;;;;;10.77;100.00;99807.25;5074951;28;20029;-35
2022/11/16 01:24:26;;;;;;;8.13;7.33;;;;;;;10.76;100.00;99797.50;5074668;28;20376;-35
2022/11/16 01:26:55;;;;;;;10.27;7.18;;;;;;;10.70;100.00;99760.69;5074263;28;20086;-35
2022/11/16 01:29:22;;;;;;;7.43;6.78;;;;;;;10.75;100.00;99771.56;5074533;28;20029;-36
2022/11/16 01:31:48;;;;;;;7.30;6.68;;;;;;;10.76;100.00;99786.69;5074662;28;20028;-35
2022/11/16 01:34:13;;;;;;;7.63;6.93;;;;;;;10.71;100.00;99773.94;5074682;28;20341;-35
2022/11/16 01:36:38;;;;;;;7.67;6.90;;;;;;;10.79;100.00;99772.66;5074116;28;20028;-36
2022/11/16 01:39:04;;;;;;;8.83;6.97;;;;;;;10.79;100.00;99783.50;5074798;28;20259;-35
2022/11/16 01:41:29;;;;;;;7.68;6.97;;;;;;;10.79;100.00;99775.38;5074302;28;20078;-35
2022/11/16 01:43:54;;;;;;;7.77;7.00;;;;;;;10.79;100.00;99773.50;5075026;28;20044;-35
2022/11/16 01:46:20;;;;;;;7.63;6.93;;;;;;;10.75;100.00;99764.25;5073908;28;20024;-35
2022/11/16 01:48:47;;;;;;;7.63;6.82;;;;;;;10.76;100.00;99773.19;5074217;28;20024;-35
2022/11/16 01:51:13;;;;;;;8.13;7.32;;;;;;;10.78;100.00;99769.16;5074359;28;20484;-35
2022/11/16 01:53:39;;;;;;;;;;;;;;;10.81;100.00;99774.03;5074662;28;20119;-35
2022/11/16 01:56:05;;;;;;;7.90;6.68;;;;;;;10.80;100.00;99768.88;5073951;28;20003;-35
2022/11/16 01:58:30;;;;;;;8.02;7.30;;;;;;;10.76;100.00;99760.47;5073020;28;20079;-35
2022/11/16 02:00:56;;;;;;;7.75;6.97;;;;;;;10.78;100.00;99765.59;5073694;28;20043;-36
2022/11/16 02:03:21;;;;;;;10.07;7.50;;;;;;;10.74;100.00;99756.41;5073865;28;20052;-35
2022/11/16 02:06:04;;;;;;;7.87;7.17;;;;;;;10.76;100.00;99759.66;5074308;28;20035;-35
2022/11/16 02:11:57;;;;;;;7.95;7.15;;;;;;;10.82;100.00;99767.53;5073940;28;20042;-35
2022/11/16 02:14:44;;;;;;;8.52;7.63;;;;;;;10.85;100.00;99763.50;5074126;28;20036;-35
2022/11/16 02:17:30;;;;;;;8.93;8.13;;;;;;;10.86;100.00;99764.34;5073636;28;20032;-35
2022/11/16 02:20:41;;;;;;;8.70;7.90;;;;;;;10.86;100.00;99758.91;5073532;28;20461;-35
2022/11/16 02:23:25;;;;;;;8.95;7.65;;;;;;;10.88;100.00;99768.38;5073623;28;20392;-35
2022/11/16 02:26:02;;;;;;;9.52;8.25;;;;;;;10.88;100.00;99759.47;5073651;28;20457;-35
2022/11/16 02:28:42;;;;;;;8.35;7.65;;;;;;;10.80;100.00;99749.97;5074162;28;20115;-35
2022/11/16 02:31:14;;;;;;;8.57;7.78;;;;;;;10.79;100.00;99748.34;5073410;28;20079;-35
2022/11/16 02:33:41;;;;;;;8.38;7.57;;;;;;;10.88;100.00;99756.75;5073780;28;20056;-35
2022/11/16 02:36:13;;;;;;;8.35;7.45;;;;;;;10.88;100.00;99752.16;5073243;28;20024;-33
2022/11/16 02:38:43;;;;;;;7.40;6.70;;;;;;;10.87;100.00;99763.25;5073781;28;20062;-34
2022/11/16 02:41:13;;;;;;;8.23;7.07;;;;;;;10.90;100.00;99768.16;5073296;28;20056;-35
2022/11/16 02:43:46;;;;;;;7.65;6.95;;;;;;;10.80;100.00;99747.25;5073197;28;20071;-35
2022/11/16 02:46:17;;;;;;;7.25;6.55;;;;;;;10.90;100.00;99768.16;5073433;28;20079;-35
2022/11/16 02:48:46;;;;;;;7.53;6.78;;;;;;;10.89;100.00;99761.94;5073117;28;20078;-35
2022/11/16 02:51:13;;;;;;;7.70;6.90;;;;;;;10.90;100.00;99766.25;5073236;28;20090;-35
2022/11/16 02:53:58;;;;;;;7.45;6.75;;;;;;;10.80;100.00;99755.38;5073545;28;20039;-35
2022/11/16 02:56:24;;;;;;;7.70;7.00;;;;;;;10.93;100.00;99773.88;5073256;28;20028;-35
2022/11/16 02:58:49;;;;;;;;;;;;;;;10.95;100.00;99770.91;5074477;28;20098;-35
2022/11/16 03:01:22;;;;;;;7.73;6.40;;;;;;;10.93;100.00;99770.31;5073069;28;20356;-35
2022/11/16 03:03:50;;;;;;;7.55;6.28;;;;;;;10.91;100.00;99776.00;5072997;28;20032;-35
2022/11/16 03:06:24;;;;;;;8.20;5.82;;;;;;;10.81;100.00;99762.41;5073193;28;20024;-35
2022/11/16 03:08:59;;;;;;;6.20;5.45;;;;;;;10.86;100.00;99770.56;5072731;28;20032;-35
2022/11/16 03:14:15;;;;;;;6.25;4.82;;;;;;;10.72;100.00;99756.66;5073036;28;20031;-35
2022/11/16 03:16:44;;;;;;;6.82;4.93;;;;;;;10.78;100.00;99768.31;5072552;28;20515;-35
2022/11/16 03:19:13;;;;;;;5.88;4.90;;;;;;;10.76;100.00;99771.28;5073324;28;20063;-33
2022/11/16 03:21:45;;;;;;;4.80;4.32;;;;;;;10.75;100.00;99769.66;5072687;28;20116;-33
2022/11/16 03:24:10;;;;;;;5.35;4.68;;;;;;;10.70;100.00;99760.69;5071937;28;20404;-33
2022/11/16 03:26:47;;;;;;;4.72;4.32;;;;;;;10.74;100.00;99768.03;5073325;28;20033;-33
2022/11/16 03:29:28;;;;;;;4.95;4.50;;;;;;;10.72;100.00;99778.28;5072612;28;20052;-33
2022/11/16 03:31:58;;;;;;;4.25;3.88;;;;;;;10.65;100.00;99768.75;5072617;28;20025;-35
2022/11/16 03:34:30;;;;;;;4.72;4.30;;;;;;;10.68;100.00;99769.03;5073171;28;20081;-35
2022/11/16 03:36:57;;;;;;;5.05;3.83;;;;;;;10.68;100.00;99770.94;5072480;28;20504;-35
2022/11/16 03:39:30;;;;;;;4.32;3.78;;;;;;;10.64;100.00;99777.94;5072260;28;20473;-35
2022/11/16 03:41:59;;;;;;;5.22;3.85;;;;;;;10.66;100.00;99783.91;5072595;28;20024;-35
2022/11/16 03:44:26;;;;;;;5.25;4.07;;;;;;;10.63;100.00;99779.00;5075892;28;20032;-35
2022/11/16 03:46:51;;;;;;;4.45;3.40;;;;;;;10.60;100.00;99779.53;5076458;28;20035;-35
2022/11/16 03:49:21;;;;;;;4.63;3.47;;;;;;;10.59;100.00;99786.84;5076500;28;20032;-35
2022/11/16 03:51:46;;;;;;;3.70;3.38;;;;;;;10.61;100.00;99794.69;5076075;28;20024;-35
2022/11/16 03:54:12;;;;;;;4.25;3.20;;;;;;;10.61;100.00;99800.09;5077075;28;20388;-35
2022/11/16 03:56:37;;;;;;;6.00;4.13;;;;;;;10.58;100.00;99802.22;5076315;28;20032;-33
2022/11/16 03:59:02;;;;;;;4.17;3.67;;;;;;;10.53;100.00;99807.56;5077184;28;20059;-33
2022/11/16 04:01:28;;;;;;;4.07;3.67;;;;;;;10.53;100.00;99812.97;5076159;28;20127;-33
2022/11/16 04:03:53;;;;;;;2.93;2.63;;;;;;;10.38;100.00;99785.00;5076134;28;20107;-33
2022/11/16 04:25:40;;;;;;;4.65;1.60;;;;;;;10.16;100.00;99818.25;5074706;28;20056;-33
2022/11/16 04:28:12;;;;;;;2.70;1.60;;;;;;;10.21;100.00;99829.13;5075855;28;20035;-33
2022/11/16 04:39:08;;;;;;;2.95;1.38;;;;;;;10.12;100.00;99830.63;5075720;28;20059;-33
2022/11/16 04:44:18;;;;;;;3.03;1.60;;;;;;;10.09;100.00;99831.13;5075908;28;20511;-33
2022/11/16 04:49:27;;;;;;;2.25;1.30;;;;;;;10.02;100.00;99814.31;5075586;28;20234;-33
2022/11/16 04:51:53;;;;;;;2.13;1.40;;;;;;;10.00;100.00;99829.94;5075198;28;20107;-33
2022/11/16 04:54:18;;;;;;;5.20;1.50;;;;;;;10.04;100.00;99839.97;5075184;28;20112;-33
2022/11/16 04:56:44;;;;;;;3.35;1.40;;;;;;;10.00;100.00;99844.28;5073644;28;20054;-33
2022/11/16 04:59:10;;;;;;;3.63;1.43;;;;;;;9.93;100.00;99837.41;5075715;28;20048;-33
2022/11/16 05:04:19;;;;;;;2.30;1.42;;;;;;;9.90;100.00;99844.13;5075063;28;20108;-33
2022/11/16 05:06:44;;;;;;;3.27;1.70;;;;;;;9.93;100.00;99856.31;5075260;28;20457;-34
2022/11/16 05:09:09;;;;;;;3.93;1.80;;;;;;;9.89;100.00;99868.69;5075374;28;20063;-35
2022/11/16 05:11:35;;;;;;;2.28;1.20;;;;;;;9.84;100.00;99861.34;5074903;28;20028;-35
2022/11/16 05:14:01;;;;;;;2.93;1.63;;;;;;;9.76;100.00;99850.94;5074566;28;20055;-35
2022/11/16 05:16:27;;;;;;;5.60;2.17;;;;;;;9.86;100.00;99864.63;5074453;28;20029;-35
2022/11/16 05:21:36;;;;;;;2.97;1.50;;;;;;;9.80;100.00;99871.00;5075428;28;20090;-35
2022/11/16 05:26:45;;;;;;;4.35;1.70;;;;;;;9.78;100.00;99881.25;5075053;28;20521;-35
2022/11/16 05:29:11;;;;;;;5.03;1.73;;;;;;;9.74;100.00;99867.41;5074794;28;20036;-35
2022/11/16 05:31:36;;;;;;;5.47;1.80;;;;;;;9.71;100.00;99873.31;5074442;28;20441;-35
2022/11/16 05:34:02;;;;;;;4.83;1.60;;;;;;;9.72;100.00;99876.84;5074113;28;20283;-35
2022/11/16 05:36:27;;;;;;;5.35;1.50;;;;;;;9.66;100.00;99869.72;5074359;28;20100;-35
2022/11/16 05:38:52;;;;;;;6.97;1.70;;;;;;;9.65;100.00;99873.47;5074542;28;20032;-35
2022/11/16 05:41:17;;;;;;;6.77;1.87;;;;;;;9.61;100.00;99870.47;5074290;28;20070;-35
2022/11/16 05:43:43;;;;;;;5.10;1.80;;;;;;;9.50;100.00;99853.31;5074592;28;20468;-35
2022/11/16 05:46:08;;;;;;;6.63;1.70;;;;;;;9.50;100.00;99861.41;5074183;28;20031;-35
2022/11/16 05:48:33;;;;;;;4.53;1.87;;;;;;;9.49;100.00;99857.06;5074453;28;20028;-35
2022/11/16 05:50:59;;;;;;;3.10;1.93;;;;;;;9.46;100.00;99860.25;5073785;28;20105;-35
2022/11/16 05:53:25;;;;;;;4.53;2.10;;;;;;;9.43;100.00;99865.34;5073980;28;20078;-35
2022/11/16 05:55:50;;;;;;;3.58;1.80;;;;;;;9.34;100.00;99856.84;5073957;28;20028;-35
2022/11/16 05:58:15;;;;;;;5.23;2.20;;;;;;;9.27;100.00;99856.19;5074032;28;20056;-35
2022/11/16 06:00:41;;;;;;;5.13;2.00;;;;;;;9.26;100.00;99868.03;5074200;28;20048;-35
2022/11/16 06:03:06;;;;;;;4.67;1.90;;;;;;;9.21;100.00;99868.78;5073875;28;20050;-35
2022/11/16 06:05:33;;;;;;;3.77;1.70;;;;;;;9.17;100.00;99873.03;5073896;28;20029;-35
2022/11/16 06:07:59;;;;;;;4.45;1.75;;;;;;;9.13;100.00;99877.31;5073983;28;20095;-35
2022/11/16 06:10:24;;;;;;;4.67;1.90;;;;;;;9.00;100.00;99867.66;5073690;28;20112;-35
2022/11/16 06:12:49;;;;;;;4.07;1.70;;;;;;;9.02;100.00;99880.88;5072426;28;20063;-35
2022/11/16 06:15:15;;;;;;;3.83;2.27;;;;;;;8.99;100.00;99890.28;5073579;28;20039;-35
2022/11/16 06:17:40;;;;;;;6.50;2.03;;;;;;;8.96;100.00;99892.63;5073337;28;20020;-35
2022/11/16 06:20:06;;;;;;;7.83;2.87;;;;;;;8.93;100.00;99891.25;5073469;28;20017;-35
2022/11/16 06:22:31;;;;;;;3.38;1.80;;;;;;;8.81;100.00;99879.72;5073709;28;20141;-35
2022/11/16 06:24:57;;;;;;;5.10;2.60;;;;;;;8.83;100.00;99888.38;5072018;28;20461;-35
2022/11/16 06:27:22;;;;;;;4.37;2.37;;;;;;;8.84;100.00;99903.50;5074133;28;20115;-35
2022/11/16 06:29:47;;;;;;;4.10;2.00;;;;;;;8.82;100.00;99892.13;5073344;28;20028;-35
2022/11/16 06:32:13;;;;;;;6.57;2.60;;;;;;;8.73;100.00;99893.56;5073488;28;20043;-35
2022/11/16 06:34:38;;;;;;;4.45;2.45;;;;;;;8.79;100.00;99908.81;5073239;28;20031;-35
2022/11/16 06:37:04;;;;;;;6.77;2.60;;;;;;;8.79;100.00;99908.81;5073243;28;20048;-35
2022/11/16 06:39:29;;;;;;;4.85;2.70;;;;;;;8.77;100.00;99921.69;5073949;28;20024;-35
2022/11/16 06:41:55;;;;;;;4.83;2.57;;;;;;;8.72;100.00;99918.91;5073186;28;20509;-35
2022/11/16 06:44:20;;;;;;;7.13;3.00;;;;;;;8.55;100.00;99904.56;5071404;28;20473;-35
2022/11/16 06:46:45;;;;;;;6.53;2.70;;;;;;;8.67;100.00;99926.88;5072867;28;20116;-35
2022/11/16 06:49:10;;;;;;;5.63;3.30;;;;;;;8.54;100.00;99916.38;5073157;28;20040;-35
2022/11/16 06:51:36;;;;;;;6.70;2.87;;;;;;;8.63;100.00;99936.50;5073502;28;20514;-35
2022/11/16 06:54:01;;;;;;;7.00;3.23;;;;;;;8.56;100.00;99936.66;5073500;28;20039;-35
2022/11/16 06:56:26;;;;;;;6.50;3.77;;;;;;;8.58;100.00;99939.91;5073323;28;20040;-35
2022/11/16 06:58:55;;;;;;;6.87;3.50;;;;;;;8.44;100.00;99923.25;5072672;28;20044;-35
2022/11/16 07:01:20;;;;;;;5.60;3.10;;;;;;;8.50;100.00;99938.44;5072883;28;20299;-35
2022/11/16 07:03:45;;;;;;;6.33;3.80;;;;;;;8.46;100.00;99937.28;5073177;28;20047;-35
2022/11/16 07:06:12;;;;;;;5.33;2.70;;;;;;;8.47;100.00;99922.75;5073155;28;20421;-35
2022/11/16 07:08:38;;;;;;;5.28;3.30;;;;;;;8.49;100.00;99941.34;5073083;28;20081;-35
2022/11/16 07:11:05;;;;;;;7.85;3.42;;;;;;;8.36;100.00;99915.53;5072502;28;20028;-35
2022/11/16 07:13:31;;;;;;;5.35;3.42;;;;;;;8.41;100.00;99933.66;5073050;28;20107;-35
2022/11/16 07:16:07;;;;;;;5.20;3.50;;;;;;;8.47;100.00;99944.28;5072767;28;20071;-35
2022/11/16 07:18:35;;;;;;;10.00;3.72;;;;;;;8.45;100.00;99941.03;5072396;28;20059;-35
2022/11/16 07:21:08;;;;;;;8.88;3.20;;;;;;;8.44;100.00;99942.09;5072704;28;20075;-35
2022/11/16 07:23:35;;;;;;;7.85;3.50;;;;;;;8.41;100.00;99939.88;5072707;28;20055;-35
2022/11/16 07:26:00;;;;;;;;;;;;;;;8.48;100.00;99945.94;5073074;28;20439;-35
2022/11/16 07:28:28;;;;;;;4.88;2.90;;;;;;;8.42;100.00;99957.66;5073475;28;19915;-35
2022/11/16 07:30:53;;;;;;;6.22;2.85;;;;;;;8.45;100.00;99957.19;5072226;28;20472;-33
2022/11/16 07:33:18;;;;;;;11.93;3.80;;;;;;;8.45;100.00;99967.16;5073058;28;20074;-33
2022/11/16 07:35:44;;;;;;;6.43;2.90;;;;;;;8.41;100.00;99955.22;5072733;28;20048;-33
2022/11/16 07:38:10;;;;;;;9.27;3.07;;;;;;;8.46;100.00;99971.50;5072793;28;20514;-35
2022/11/16 07:40:35;;;;;;;6.72;2.80;;;;;;;8.46;100.00;99977.69;5072633;28;20476;-33
2022/11/16 07:43:01;;;;;;;7.07;2.97;;;;;;;8.43;100.00;99969.25;5072305;28;20040;-33
2022/11/16 07:45:26;;;;;;;6.20;2.90;;;;;;;8.48;100.00;99972.88;5072920;28;20036;-33
2022/11/16 07:47:52;;;;;;;8.03;3.20;;;;;;;8.50;100.00;99976.16;5071986;28;20032;-33
2022/11/16 07:50:17;;;;;;;8.88;3.72;;;;;;;8.48;100.00;99975.56;5072966;28;20039;-33
2022/11/16 07:52:45;;;;;;;6.05;3.53;;;;;;;8.48;100.00;99974.75;5072731;28;20368;-33
2022/11/16 07:55:11;;;;;;;7.97;3.80;;;;;;;8.55;100.00;99982.72;5072873;28;20056;-34
2022/11/16 07:57:36;;;;;;;;;;;;;;;8.64;100.00;99990.19;5072546;28;20457;-33
2022/11/16 08:00:03;;;;;;;11.00;4.20;;;;;;;8.54;100.00;99975.66;5072319;28;19913;-33
2022/11/16 08:02:28;;;;;;;8.52;3.95;;;;;;;8.65;100.00;99982.91;5070941;28;20020;-33
2022/11/16 08:04:54;;;;;;;10.57;5.47;;;;;;;8.65;100.00;99982.91;5070751;28;20031;-34
2022/11/16 08:07:19;;;;;;;11.10;4.53;;;;;;;8.67;100.00;99988.88;5072877;28;20033;-33
2022/11/16 08:09:44;;;;;;;10.63;4.50;;;;;;;8.69;100.00;99984.09;5072545;28;20035;-34
2022/11/16 08:12:10;;;;;;;10.73;4.33;;;;;;;8.67;100.00;99981.59;5072595;28;20060;-33
2022/11/16 08:14:35;;;;;;;10.43;4.10;;;;;;;8.73;100.00;99991.44;5072219;28;20036;-35
2022/11/16 08:17:02;;;;;;;12.97;4.80;;;;;;;8.79;100.00;99994.25;5072608;28;20036;-34
2022/11/16 08:19:27;;;;;;;9.10;4.10;;;;;;;8.80;100.00;99993.19;5072610;28;20078;-38
2022/11/16 08:21:53;;;;;;;8.85;3.75;;;;;;;8.81;100.00;99992.13;5072358;28;20059;-35
2022/11/16 08:24:18;;;;;;;8.23;3.70;;;;;;;8.86;100.00;99993.03;5072451;28;20029;-35
2022/11/16 08:26:44;;;;;;;9.50;3.97;;;;;;;8.89;100.00;100003.34;5071905;28;20056;-35
2022/11/16 08:29:10;;;;;;;9.47;3.33;;;;;;;8.78;100.00;99982.63;5073178;28;20513;-35
2022/11/16 08:31:35;;;;;;;;;;;;;;;9.01;100.00;99998.72;5076064;28;20024;-35
2022/11/16 08:34:01;;;;;;;7.25;2.70;;;;;;;8.98;100.00;99999.22;5075135;28;19950;-34
2022/11/16 08:36:26;;;;;;;9.40;3.17;;;;;;;9.05;100.00;100000.94;5075927;28;20086;-35
2022/11/16 08:38:52;;;;;;;7.88;3.08;;;;;;;9.07;100.00;99991.53;5075866;28;20024;-35
2022/11/16 08:41:19;;;;;;;9.73;2.88;;;;;;;9.12;100.00;99998.91;5076026;28;20074;-34
2022/11/16 08:43:46;;;;;;;9.40;2.40;;;;;;;9.14;100.00;99996.78;5075814;28;20028;-35
2022/11/16 08:46:12;;;;;;;8.25;2.70;;;;;;;9.19;100.00;100005.78;5075165;28;20397;-35
2022/11/16 08:48:38;;;;;;;9.05;2.70;;;;;;;9.26;100.00;100005.63;5075939;28;20024;-35
2022/11/16 08:51:05;;;;;;;8.20;2.53;;;;;;;9.27;100.00;100012.66;5076375;28;20494;-34
2022/11/16 08:53:31;;;;;;;10.25;2.38;;;;;;;9.27;100.00;100004.56;5075540;28;20071;-34
2022/11/16 08:56:02;;;;;;;11.68;2.63;;;;;;;9.32;100.00;99999.28;5075850;28;20056;-35
2022/11/16 08:58:28;;;;;;;11.50;2.45;;;;;;;9.37;100.00;100010.16;5075841;28;20457;-35
2022/11/16 09:00:53;;;;;;;9.98;3.10;;;;;;;9.41;100.00;100008.59;5075555;28;20075;-35
2022/11/16 09:03:18;;;;;;;12.43;2.17;;;;;;;9.42;100.00;100014.81;5074095;28;20040;-35
2022/11/16 09:05:45;;;;;;;10.83;2.87;;;;;;;9.45;100.00;100019.72;5074890;28;20056;-35
2022/11/16 09:08:11;;;;;;;10.75;2.45;;;;;;;9.47;100.00;100018.44;5075358;28;20025;-35
2022/11/16 09:10:36;;;;;;;11.00;2.38;;;;;;;9.45;100.00;100004.34;5075079;28;20369;-35
2022/11/16 09:13:02;;;;;;;9.95;2.53;;;;;;;9.57;100.00;100023.19;5075089;28;20044;-35
2022/11/16 09:15:28;;;;;;;10.07;2.20;;;;;;;9.62;100.00;100022.47;5075127;28;20040;-35
2022/11/16 09:17:54;;;;;;;11.13;2.95;;;;;;;9.63;100.00;100016.81;5075414;28;20033;-35
2022/11/16 09:20:19;;;;;;;9.35;2.17;;;;;;;9.64;100.00;100018.44;5073566;28;20032;-35
2022/11/16 09:22:45;;;;;;;10.35;3.38;;;;;;;9.66;100.00;100026.28;5074691;28;20039;-35
2022/11/16 09:25:10;;;;;;;9.73;2.50;;;;;;;9.71;100.00;100031.75;5074191;28;20052;-35
2022/11/16 09:27:36;;;;;;;8.60;2.07;;;;;;;9.75;100.00;100024.81;5075526;28;20392;-35
2022/11/16 09:30:02;;;;;;;;;;;;;;;9.83;100.00;100020.91;5074765;28;20547;-35
2022/11/16 09:32:27;;;;;;;8.10;2.40;;;;;;;9.77;100.00;100018.13;5074586;28;19944;-35
2022/11/16 09:34:52;;;;;;;7.60;1.90;;;;;;;9.84;100.00;100023.34;5074786;28;20392;-35
2022/11/16 09:37:18;;;;;;;8.70;2.30;;;;;;;9.89;100.00;100019.91;5074790;28;20032;-35
2022/11/16 09:39:43;;;;;;;6.30;1.90;;;;;;;9.91;100.00;100017.78;5074475;28;20460;-36
2022/11/16 09:42:27;;;;;;;10.00;2.13;;;;;;;9.91;100.00;100007.00;5073631;28;20324;-35
2022/11/16 09:45:03;;;;;;;11.60;2.00;;;;;;;9.98;100.00;100023.84;5074331;28;20024;-35
2022/11/16 09:47:39;;;;;;;9.63;1.90;;;;;;;10.04;100.00;100028.25;5074177;28;20024;-35
2022/11/16 09:50:11;;;;;;;6.35;1.67;;;;;;;10.09;100.00;100033.72;5074032;28;20385;-35
2022/11/16 09:52:44;;;;;;;10.55;2.20;;;;;;;10.04;100.00;100029.06;5074114;28;20059;-35
2022/11/16 09:55:33;;;;;;;8.60;2.10;;;;;;;10.10;100.00;100029.94;5074432;28;20043;-35
2022/11/16 09:58:01;;;;;;;8.95;2.00;;;;;;;10.12;100.00;100019.72;5073851;28;20052;-35
2022/11/16 10:00:29;;;;;;;9.23;2.20;;;;;;;10.22;100.00;100029.88;5073745;28;20057;-35
2022/11/16 10:03:05;;;;;;;8.55;1.70;;;;;;;10.26;100.00;100026.44;5074225;28;20481;-35
2022/11/16 10:05:49;;;;;;;5.30;1.70;;;;;;;10.30;100.00;100034.88;5073959;28;20473;-35
2022/11/16 10:08:43;;;;;;;8.18;1.52;;;;;;;10.28;100.00;100032.41;5072562;28;20033;-35
2022/11/16 10:11:32;;;;;;;9.65;2.20;;;;;;;10.30;100.00;100038.41;5073582;28;20477;-34
2022/11/16 10:14:19;;;;;;;7.35;1.80;;;;;;;10.42;100.00;100030.19;5073962;28;20063;-35
2022/11/16 10:17:09;;;;;;;5.70;1.98;;;;;;;10.44;100.00;100033.47;5073272;28;20028;-35
2022/11/16 10:19:52;;;;;;;9.38;2.67;;;;;;;10.47;100.00;100027.53;5074197;28;20032;-34
2022/11/16 10:22:43;;;;;;;5.75;1.73;;;;;;;10.57;100.00;100024.97;5073681;28;20024;-35
2022/11/16 10:25:16;;;;;;;12.68;2.53;;;;;;;10.57;100.00;100027.66;5073631;28;20035;-35
2022/11/16 10:28:07;;;;;;;5.45;1.85;;;;;;;10.63;100.00;100025.03;5073538;28;20074;-35
2022/11/16 10:30:47;;;;;;;5.80;1.65;;;;;;;10.68;100.00;100023.22;5074099;28;20031;-35
2022/11/16 10:33:18;;;;;;;5.60;1.88;;;;;;;10.73;100.00;100022.44;5074049;28;20035;-34
2022/11/16 10:35:50;;;;;;;7.13;1.80;;;;;;;10.81;100.00;100024.72;5073986;28;20032;-35
2022/11/16 10:38:20;;;;;;;7.30;1.58;;;;;;;10.81;100.00;100027.44;5073747;28;20161;-35
2022/11/16 10:40:51;;;;;;;7.03;1.83;;;;;;;10.80;100.00;100004.16;5073322;28;20051;-35
2022/11/16 10:43:23;;;;;;;7.47;2.13;;;;;;;10.93;100.00;100014.59;5073372;28;20483;-35
2022/11/16 10:45:59;;;;;;;6.90;1.48;;;;;;;11.01;100.00;100016.84;5074224;28;20036;-35
2022/11/16 10:48:35;;;;;;;9.45;2.05;;;;;;;10.93;100.00;100000.22;5073574;28;20039;-34
2022/11/16 10:51:01;;;;;;;5.28;1.80;;;;;;;10.98;100.00;100001.13;5073391;28;20389;-35
2022/11/16 10:53:28;;;;;;;5.05;1.60;;;;;;;11.11;100.00;100004.50;5072388;28;20024;-35
2022/11/16 10:56:14;;;;;;;6.80;1.75;;;;;;;11.14;100.00;100015.63;5072758;28;20504;-35
2022/11/16 10:58:51;;;;;;;5.38;1.70;;;;;;;11.17;100.00;100014.28;5072986;28;20041;-35
2022/11/16 11:01:37;;;;;;;9.93;2.35;;;;;;;11.19;100.00;100018.38;5073210;28;20096;-35
2022/11/16 11:04:25;;;;;;;7.07;1.92;;;;;;;11.26;100.00;100010.06;5073261;28;20056;-35
2022/11/16 11:06:55;;;;;;;14.80;3.13;;;;;;;11.34;100.00;100013.13;5073185;28;20415;-34
2022/11/16 11:09:24;;;;;;;4.75;1.67;;;;;;;11.31;100.00;100015.50;5073481;28;20024;-35
2022/11/16 11:15:21;;;;;;;7.47;1.60;;;;;;;11.29;100.00;100025.78;5073436;28;20047;-35
2022/11/16 11:17:48;;;;;;;6.18;1.60;;;;;;;11.14;98.76;99993.16;5072807;28;20469;-35
2022/11/16 11:20:13;;;;;;;6.03;1.60;;;;;;;11.26;98.88;100002.75;5073106;28;20070;-35
2022/11/16 11:22:53;;;;;;;7.40;1.30;;;;;;;11.27;98.78;100008.97;5072585;28;20025;-35
2022/11/16 11:25:22;;;;;;;6.28;1.60;;;;;;;11.29;99.95;100004.97;5073177;28;20021;-35
2022/11/16 11:27:49;;;;;;;7.20;1.67;;;;;;;11.23;98.76;100007.88;5072473;28;20032;-35
2022/11/16 11:30:19;;;;;;;4.95;1.58;;;;;;;11.24;99.30;100014.91;5072723;28;20039;-35
2022/11/16 11:32:46;;;;;;;6.80;1.30;;;;;;;11.33;99.08;100002.56;5073146;28;20411;-35
2022/11/16 11:35:29;;;;;;;10.15;1.77;;;;;;;11.44;99.47;99993.44;5072695;28;20115;-35
2022/11/16 11:37:59;;;;;;;4.85;1.30;;;;;;;11.50;96.60;99987.00;5072642;28;20028;-35
2022/11/16 11:40:29;;;;;;;4.93;1.23;;;;;;;11.45;96.12;99989.66;5073158;28;20074;-35
2022/11/16 11:42:54;;;;;;;8.43;1.60;;;;;;;11.26;94.83;99966.75;5072334;28;20066;-35
2022/11/16 11:45:31;;;;;;;6.73;1.70;;;;;;;11.25;95.24;99995.72;5073120;28;20028;-35
2022/11/16 11:48:23;;;;;;;6.15;1.48;;;;;;;11.16;95.76;99991.00;5072657;28;20384;-35
2022/11/16 11:50:53;;;;;;;5.28;2.03;;;;;;;11.07;96.31;99982.53;5072579;28;20051;-35
2022/11/16 11:53:34;;;;;;;6.00;1.20;;;;;;;11.05;97.10;99979.28;5072226;28;20364;-35
2022/11/16 11:55:59;;;;;;;6.03;1.30;;;;;;;11.00;97.08;99984.63;5072359;28;20032;-34
2022/11/16 11:58:37;;;;;;;6.55;1.33;;;;;;;10.99;97.92;99989.22;5073295;28;20429;-35
2022/11/16 12:01:39;;;;;;;5.90;1.60;;;;;;;10.97;98.24;99985.94;5072441;28;20031;-34
2022/11/16 12:04:46;;;;;;;6.60;1.50;;;;;;;10.91;98.04;99970.75;5073389;28;20032;-35
2022/11/16 12:07:39;;;;;;;5.47;1.50;;;;;;;10.92;98.70;99968.84;5073371;28;20041;-35
2022/11/16 12:10:27;;;;;;;6.03;1.60;;;;;;;11.07;99.02;99952.78;5076623;28;20037;-34
2022/11/16 12:13:01;;;;;;;4.25;1.50;;;;;;;11.22;98.11;99968.34;5076006;28;20031;-35
2022/11/16 12:15:45;;;;;;;4.35;1.40;;;;;;;11.21;97.94;99950.47;5076299;28;20035;-35
2022/11/16 12:18:16;;;;;;;5.43;1.58;;;;;;;11.26;96.50;99958.63;5076512;28;20025;-34
2022/11/16 12:21:02;;;;;;;6.53;1.33;;;;;;;11.36;96.58;99953.31;5075704;28;20037;-35
2022/11/16 12:23:48;;;;;;;6.43;1.50;;;;;;;11.40;95.83;99943.59;5076252;28;20036;-35
2022/11/16 12:26:54;;;;;;;8.98;1.70;;;;;;;11.45;96.34;99935.53;5076593;28;20073;-35
2022/11/16 12:29:26;;;;;;;5.75;1.38;;;;;;;11.39;95.77;99939.28;5014316;28;20050;-35
2022/11/16 12:31:54;;;;;;;7.13;1.80;;;;;;;11.50;96.07;99943.69;5013627;28;20092;-35